Time;durP1;ratioP1;P1;durP2;ratioP2;P2;SDS_P1;SDS_P2;PMS_P1;PMS_P2;Temp;Humidity;BMP_temperature;BMP_pressure;BME280_temperature;BME280_humidity;BME280_pressure;Samples;Min_cycle;Max_cycle;Signal;HPM_P1;HPM_P2
2023/06/07 00:00:33;;;;;;;7.78;3.17;;;9.70;99.90;;;;;;4867760;29;20352;-91
2023/06/07 00:02:59;;;;;;;6.63;3.20;;;9.60;99.90;;;;;;4900197;29;20228;-91
2023/06/07 00:05:25;;;;;;;9.32;3.35;;;9.60;99.90;;;;;;4871666;29;20475;-90
2023/06/07 00:07:51;;;;;;;8.95;3.80;;;9.60;99.90;;;;;;4887589;29;20051;-92
2023/06/07 00:10:18;;;;;;;8.53;3.27;;;9.50;99.90;;;;;;4914020;29;20036;-91
2023/06/07 00:12:44;;;;;;;7.75;3.53;;;9.40;99.90;;;;;;4893340;29;20535;-92
2023/06/07 00:15:10;;;;;;;10.73;3.38;;;9.50;99.90;;;;;;4887009;29;20044;-92
2023/06/07 00:17:43;;;;;;;7.88;3.67;;;9.50;99.90;;;;;;4875474;29;20044;-91
2023/06/07 00:20:09;;;;;;;10.27;3.72;;;9.40;99.90;;;;;;4883978;29;20052;-91
2023/06/07 00:22:34;;;;;;;7.95;3.35;;;9.40;99.90;;;;;;4881595;29;20086;-92
2023/06/07 00:25:02;;;;;;;7.28;3.35;;;9.40;99.90;;;;;;4877316;29;20052;-92
2023/06/07 00:27:27;;;;;;;8.77;3.35;;;9.40;99.90;;;;;;4871291;29;20484;-92
2023/06/07 00:29:53;;;;;;;7.28;3.13;;;9.40;99.90;;;;;;4854778;29;20107;-92
2023/06/07 00:32:19;;;;;;;8.75;3.50;;;9.40;99.90;;;;;;4871914;29;20103;-93
2023/06/07 00:34:44;;;;;;;9.65;3.70;;;9.40;99.90;;;;;;4888868;29;20044;-91
2023/06/07 00:37:10;;;;;;;9.75;3.42;;;9.40;99.90;;;;;;4888542;29;20043;-92
2023/06/07 00:39:36;;;;;;;6.72;3.13;;;9.40;99.90;;;;;;4899026;29;20088;-91
2023/06/07 00:42:02;;;;;;;7.72;3.42;;;9.40;99.90;;;;;;4896370;29;20032;-92
2023/06/07 00:44:28;;;;;;;13.17;3.70;;;9.50;99.90;;;;;;4860568;29;20041;-91
2023/06/07 00:46:54;;;;;;;6.47;2.88;;;9.50;99.90;;;;;;4882581;29;20088;-92
2023/06/07 00:49:20;;;;;;;7.93;2.97;;;9.50;99.90;;;;;;4871374;29;20044;-92
2023/06/07 00:51:46;;;;;;;7.40;2.88;;;9.50;99.90;;;;;;4870103;29;20051;-91
2023/06/07 00:54:17;;;;;;;8.13;2.88;;;9.40;99.90;;;;;;4881153;29;20046;-92
2023/06/07 00:56:45;;;;;;;5.43;3.10;;;9.30;99.90;;;;;;4889157;29;20043;-93
2023/06/07 00:59:11;;;;;;;9.25;3.25;;;9.30;99.90;;;;;;4886824;29;20074;-92
2023/06/07 01:01:37;;;;;;;4.88;2.83;;;9.30;99.90;;;;;;4906923;29;20048;-92
2023/06/07 01:04:05;;;;;;;9.25;2.80;;;9.30;99.90;;;;;;4873396;29;20050;-92
2023/06/07 01:06:31;;;;;;;9.55;3.05;;;9.30;99.90;;;;;;4884154;29;20055;-92
2023/06/07 01:08:57;;;;;;;7.95;2.60;;;9.30;99.90;;;;;;4868149;29;20040;-92
2023/06/07 01:11:24;;;;;;;7.25;2.70;;;9.20;99.90;;;;;;4884296;29;20040;-91
2023/06/07 01:13:50;;;;;;;11.40;2.80;;;8.80;99.90;;;;;;4901824;29;20081;-92
2023/06/07 01:16:17;;;;;;;7.40;2.63;;;9.30;99.90;;;;;;4885706;29;20037;-92
2023/06/07 01:18:45;;;;;;;7.53;2.53;;;9.30;99.90;;;;;;4864542;29;20047;-92
2023/06/07 01:21:13;;;;;;;6.05;2.42;;;9.30;99.90;;;;;;4887301;29;20055;-92
2023/06/07 01:23:40;;;;;;;8.50;3.10;;;9.30;99.90;;;;;;4881798;29;20651;-93
2023/06/07 01:26:06;;;;;;;7.35;2.28;;;9.30;99.90;;;;;;4865167;29;20133;-93
2023/06/07 01:28:37;;;;;;;4.68;2.30;;;9.30;99.90;;;;;;4873266;29;20039;-92
2023/06/07 01:31:03;;;;;;;8.32;3.13;;;9.30;99.90;;;;;;4882310;29;20600;-93
2023/06/07 01:33:32;;;;;;;7.93;2.55;;;9.40;99.90;;;;;;4859011;29;20044;-93
2023/06/07 01:35:59;;;;;;;7.60;3.13;;;9.40;99.90;;;;;;4870784;29;20119;-92
2023/06/07 01:38:26;;;;;;;;;;;9.40;99.90;;;;;;4907511;29;20043;-94
2023/06/07 01:40:53;;;;;;;8.93;3.03;;;9.40;99.90;;;;;;4924027;29;19922;-92
2023/06/07 01:43:21;;;;;;;11.40;3.08;;;9.50;99.90;;;;;;4905141;29;20043;-92
2023/06/07 01:45:47;;;;;;;7.20;2.92;;;9.50;99.90;;;;;;4915668;29;20087;-92
2023/06/07 01:48:15;;;;;;;11.35;2.60;;;9.50;99.90;;;;;;4896255;29;20048;-91
2023/06/07 01:50:41;;;;;;;6.53;2.95;;;9.50;99.90;;;;;;4890938;29;20048;-92
2023/06/07 01:53:08;;;;;;;6.32;2.72;;;9.50;99.90;;;;;;4889235;29;20107;-92
2023/06/07 01:55:34;;;;;;;7.13;2.92;;;9.50;99.90;;;;;;4867387;29;20086;-93
2023/06/07 01:58:29;;;;;;;6.28;2.35;;;9.50;99.90;;;;;;4877634;29;20076;-92
2023/06/07 02:01:14;;;;;;;7.78;2.50;;;9.50;99.90;;;;;;4889739;29;20075;-92
2023/06/07 02:03:46;;;;;;;8.43;2.60;;;9.50;99.90;;;;;;4877568;29;20117;-92
2023/06/07 02:06:16;;;;;;;7.55;2.80;;;9.50;99.90;;;;;;4882436;29;20047;-93
2023/06/07 02:08:54;;;;;;;8.88;2.88;;;9.60;99.90;;;;;;4886177;29;20131;-93
2023/06/07 02:11:22;;;;;;;7.23;2.50;;;9.60;99.90;;;;;;4871967;29;20131;-92
2023/06/07 02:13:52;;;;;;;7.60;2.40;;;9.60;99.90;;;;;;4885371;29;20623;-93
2023/06/07 02:16:35;;;;;;;6.13;2.63;;;9.70;99.90;;;;;;4857724;29;20041;-93
2023/06/07 02:19:06;;;;;;;7.40;2.60;;;9.70;99.90;;;;;;4887031;29;20044;-93
2023/06/07 02:21:36;;;;;;;7.60;2.95;;;9.70;99.90;;;;;;4876426;29;20035;-94
2023/06/07 02:24:05;;;;;;;8.77;2.97;;;9.70;99.90;;;;;;4885059;29;20051;-92
2023/06/07 02:26:32;;;;;;;6.47;2.75;;;9.70;99.90;;;;;;4901057;29;20036;-94
2023/06/07 02:28:58;;;;;;;8.77;3.53;;;9.70;99.90;;;;;;4879385;29;20047;-93
2023/06/07 02:31:24;;;;;;;6.78;2.70;;;9.80;99.90;;;;;;4880169;29;20616;-93
2023/06/07 02:33:50;;;;;;;8.65;3.17;;;10.10;99.90;;;;;;4863266;29;20037;-93
2023/06/07 02:36:18;;;;;;;13.63;3.03;;;9.80;99.90;;;;;;4881844;29;20051;-93
2023/06/07 02:38:43;;;;;;;8.85;2.90;;;9.80;99.90;;;;;;4886055;29;20043;-93
2023/06/07 02:41:09;;;;;;;6.03;2.65;;;9.80;99.90;;;;;;4858356;29;20040;-93
2023/06/07 02:43:36;;;;;;;7.10;2.80;;;9.90;99.90;;;;;;4881579;29;20104;-93
2023/06/07 02:46:02;;;;;;;6.15;2.90;;;9.90;99.90;;;;;;4883410;29;20044;-92
2023/06/07 02:48:28;;;;;;;8.60;2.50;;;9.90;99.90;;;;;;4874443;29;20036;-94
2023/06/07 02:50:54;;;;;;;9.13;3.53;;;9.90;99.90;;;;;;4890884;29;20550;-92
2023/06/07 02:53:20;;;;;;;6.05;2.67;;;9.90;99.90;;;;;;4877216;29;20078;-93
2023/06/07 02:55:46;;;;;;;6.75;3.03;;;9.90;99.90;;;;;;4889277;29;20032;-92
2023/06/07 02:58:13;;;;;;;7.20;2.58;;;10.00;99.90;;;;;;4865247;29;20080;-94
2023/06/07 03:00:39;;;;;;;10.82;2.90;;;10.00;99.90;;;;;;4869131;29;20046;-93
2023/06/07 03:03:05;;;;;;;6.22;2.22;;;10.00;99.90;;;;;;4873677;29;20065;-93
2023/06/07 03:05:31;;;;;;;7.25;2.10;;;10.00;99.90;;;;;;4914132;29;20105;-93
2023/06/07 03:07:59;;;;;;;5.55;2.55;;;10.00;99.90;;;;;;4889635;29;20044;-93
2023/06/07 03:10:26;;;;;;;7.70;2.70;;;10.10;99.90;;;;;;4874342;29;20131;-94
2023/06/07 03:12:52;;;;;;;6.63;2.42;;;10.10;99.90;;;;;;4872580;29;20037;-93
2023/06/07 03:15:17;;;;;;;9.10;2.60;;;10.10;99.90;;;;;;4882961;29;20036;-93
2023/06/07 03:17:44;;;;;;;4.43;2.55;;;10.10;99.90;;;;;;4871522;29;20205;-93
2023/06/07 03:20:10;;;;;;;7.00;2.78;;;10.20;99.90;;;;;;4854652;29;20207;-94
2023/06/07 03:22:36;;;;;;;8.25;2.65;;;10.10;99.90;;;;;;4875930;29;20048;-94
2023/06/07 03:25:02;;;;;;;11.60;2.80;;;10.20;99.90;;;;;;4883917;29;20127;-93
2023/06/07 03:27:32;;;;;;;9.10;2.80;;;10.20;99.90;;;;;;4888078;29;20051;-93
2023/06/07 03:30:00;;;;;;;7.65;2.70;;;10.20;99.90;;;;;;4857370;29;20499;-93
2023/06/07 03:32:26;;;;;;;7.97;2.80;;;10.20;99.90;;;;;;4873224;29;20067;-94
2023/06/07 03:34:52;;;;;;;7.22;2.70;;;10.20;99.90;;;;;;4856710;29;20100;-95
2023/06/07 03:37:17;;;;;;;9.25;2.60;;;10.30;99.90;;;;;;4888408;29;20040;-93
2023/06/07 03:39:43;;;;;;;5.82;2.67;;;10.30;99.90;;;;;;4888237;29;20156;-94
2023/06/07 03:42:09;;;;;;;8.73;3.15;;;10.40;99.90;;;;;;4857839;29;20075;-93
2023/06/07 03:44:35;;;;;;;8.98;2.90;;;10.40;99.90;;;;;;4887592;29;20052;-93
2023/06/07 03:47:00;;;;;;;7.32;2.80;;;10.50;99.90;;;;;;4884275;29;20104;-93
2023/06/07 03:49:26;;;;;;;8.13;2.65;;;10.50;99.90;;;;;;4879652;29;20121;-93
2023/06/07 03:51:53;;;;;;;6.63;2.58;;;10.50;99.90;;;;;;4879026;29;20047;-94
2023/06/07 03:54:19;;;;;;;8.50;2.83;;;10.50;99.90;;;;;;4879685;29;20059;-94
2023/06/07 03:56:45;;;;;;;8.98;2.95;;;10.00;99.90;;;;;;4897250;29;20044;-92
2023/06/07 03:59:20;;;;;;;5.80;3.22;;;10.60;99.90;;;;;;4887573;29;20036;-96
2023/06/07 04:01:49;;;;;;;9.07;3.13;;;10.30;99.90;;;;;;4891013;29;20131;-96
2023/06/07 04:04:16;;;;;;;8.25;2.30;;;10.40;99.90;;;;;;4882834;29;20095;-96
2023/06/07 04:06:49;;;;;;;7.47;2.88;;;10.90;99.90;;;;;;4900114;29;20071;-96
2023/06/07 04:09:18;;;;;;;7.38;2.80;;;10.40;99.90;;;;;;4897085;29;20040;-96
2023/06/07 04:11:50;;;;;;;5.93;2.47;;;10.80;99.90;;;;;;4904010;29;20173;-96
2023/06/07 04:14:17;;;;;;;7.07;2.67;;;10.80;99.90;;;;;;4896428;29;20064;-96
2023/06/07 04:16:46;;;;;;;6.00;2.33;;;11.10;99.90;;;;;;4915608;29;20043;-96
2023/06/07 04:19:13;;;;;;;4.68;2.58;;;11.00;99.90;;;;;;4902249;29;20111;-96
2023/06/07 04:21:39;;;;;;;5.32;2.30;;;11.00;99.90;;;;;;4896028;29;20103;-96
2023/06/07 04:24:07;;;;;;;6.83;2.53;;;11.10;99.90;;;;;;4913498;29;20067;-96
2023/06/07 04:26:33;;;;;;;6.43;2.22;;;11.20;99.90;;;;;;4898512;29;20076;-94
2023/06/07 04:28:59;;;;;;;6.90;2.92;;;11.20;99.90;;;;;;4901998;29;20047;-93
2023/06/07 04:31:29;;;;;;;6.82;2.67;;;11.30;99.90;;;;;;4876814;29;20044;-93
2023/06/07 04:34:01;;;;;;;8.55;2.67;;;11.40;99.90;;;;;;4888958;29;20048;-93
2023/06/07 04:36:30;;;;;;;10.07;2.50;;;11.40;99.90;;;;;;4877490;29;20615;-93
2023/06/07 04:38:56;;;;;;;10.52;2.35;;;11.40;99.90;;;;;;4885783;29;20060;-93
2023/06/07 04:41:30;;;;;;;6.43;2.20;;;11.40;99.90;;;;;;4894426;29;20120;-93
2023/06/07 04:43:56;;;;;;;7.00;2.10;;;11.40;99.90;;;;;;4901884;29;20052;-92
2023/06/07 04:46:23;;;;;;;3.60;2.23;;;11.50;99.90;;;;;;4848928;29;20044;-93
2023/06/07 04:48:48;;;;;;;7.05;2.40;;;11.50;99.90;;;;;;4888614;29;20111;-93
2023/06/07 04:51:18;;;;;;;5.32;2.00;;;11.50;99.90;;;;;;4870133;29;20044;-93
2023/06/07 04:53:44;;;;;;;6.80;2.42;;;11.60;99.90;;;;;;4869438;29;20123;-93
2023/06/07 04:56:11;;;;;;;5.88;2.30;;;11.60;99.90;;;;;;4870216;29;20040;-92
2023/06/07 04:58:38;;;;;;;5.00;2.33;;;11.60;99.90;;;;;;4851950;29;20040;-92
2023/06/07 05:01:04;;;;;;;;;;;12.10;99.90;;;;;;4875011;29;20987;-92
2023/06/07 05:03:31;;;;;;;7.25;2.28;;;11.70;99.90;;;;;;4868423;29;19929;-93
2023/06/07 05:06:02;;;;;;;4.68;1.77;;;11.70;99.90;;;;;;4862948;29;20099;-92
2023/06/07 05:08:28;;;;;;;6.28;1.95;;;11.70;99.90;;;;;;4902563;29;20083;-92
2023/06/07 05:10:54;;;;;;;5.13;1.75;;;11.80;99.90;;;;;;4855122;29;20134;-92
2023/06/07 05:13:19;;;;;;;8.55;2.25;;;11.40;99.90;;;;;;4889417;29;20539;-92
2023/06/07 05:15:45;;;;;;;4.28;1.90;;;11.80;99.90;;;;;;4889413;29;20044;-92
2023/06/07 05:18:12;;;;;;;4.35;2.15;;;11.90;99.90;;;;;;4866796;29;20130;-94
2023/06/07 05:20:38;;;;;;;6.33;2.00;;;11.90;99.90;;;;;;4868237;29;20040;-92
2023/06/07 05:23:04;;;;;;;6.90;1.83;;;11.90;99.90;;;;;;4901292;29;20050;-92
2023/06/07 05:25:31;;;;;;;7.17;2.27;;;11.90;99.90;;;;;;4877787;29;20095;-92
2023/06/07 05:27:56;;;;;;;7.13;3.05;;;11.90;99.90;;;;;;4877894;29;20048;-94
2023/06/07 05:30:26;;;;;;;8.38;3.28;;;12.00;99.90;;;;;;4884864;29;20151;-95
2023/06/07 05:32:54;;;;;;;5.90;2.30;;;12.00;99.90;;;;;;4901617;29;20127;-91
2023/06/07 05:35:20;;;;;;;6.93;2.22;;;12.00;99.90;;;;;;4891170;29;20040;-93
2023/06/07 05:37:49;;;;;;;8.77;2.50;;;12.00;99.90;;;;;;4903665;29;20024;-92
2023/06/07 05:40:18;;;;;;;6.85;2.60;;;11.70;99.90;;;;;;4893074;29;20038;-86
2023/06/07 05:42:45;;;;;;;6.55;2.65;;;12.20;99.90;;;;;;4914323;29;20051;-95
2023/06/07 05:45:11;;;;;;;6.43;2.95;;;11.90;99.90;;;;;;4889373;29;20044;-95
2023/06/07 05:47:37;;;;;;;6.25;2.25;;;11.90;99.90;;;;;;4884611;29;20114;-92
2023/06/07 05:50:04;;;;;;;7.07;2.00;;;12.40;99.90;;;;;;4886813;29;20049;-91
2023/06/07 05:52:30;;;;;;;4.45;1.65;;;12.40;99.90;;;;;;4875089;29;20122;-90
2023/06/07 05:54:57;;;;;;;5.05;2.17;;;12.40;99.90;;;;;;4880283;29;20122;-91
2023/06/07 05:57:26;;;;;;;4.22;2.20;;;12.50;99.90;;;;;;4863189;29;20086;-96
2023/06/07 05:59:52;;;;;;;5.72;2.70;;;12.50;99.90;;;;;;4885600;29;20574;-91
2023/06/07 06:02:20;;;;;;;6.90;2.42;;;12.50;99.90;;;;;;4880968;29;20188;-91
2023/06/07 06:04:52;;;;;;;6.32;2.30;;;12.60;99.90;;;;;;4884424;29;20051;-90
2023/06/07 06:07:23;;;;;;;7.05;2.17;;;12.70;99.90;;;;;;4886811;29;20043;-92
2023/06/07 06:09:50;;;;;;;9.80;2.33;;;12.80;99.90;;;;;;4881083;29;20100;-91
2023/06/07 06:12:16;;;;;;;6.95;2.03;;;12.70;99.90;;;;;;4885312;29;20076;-91
2023/06/07 06:14:44;;;;;;;6.03;1.80;;;12.80;99.90;;;;;;4868375;29;20067;-91
2023/06/07 06:17:10;;;;;;;4.68;2.22;;;13.10;99.90;;;;;;4876027;29;20040;-90
2023/06/07 06:19:36;;;;;;;5.28;2.00;;;12.90;99.90;;;;;;4862740;29;20036;-90
2023/06/07 06:22:02;;;;;;;5.40;2.03;;;12.80;99.90;;;;;;4889255;29;20048;-96
2023/06/07 06:24:27;;;;;;;7.50;2.33;;;12.80;99.90;;;;;;4863436;29;20096;-96
2023/06/07 06:26:53;;;;;;;4.90;1.88;;;12.80;99.90;;;;;;4902323;29;20117;-95
2023/06/07 06:29:19;;;;;;;6.32;1.98;;;12.80;99.90;;;;;;4864731;29;20059;-96
2023/06/07 06:32:25;;;;;;;6.15;2.13;;;12.80;99.90;;;;;;4878140;29;20111;-96
2023/06/07 06:34:50;;;;;;;5.70;2.00;;;12.60;99.90;;;;;;4903379;29;20036;-96
2023/06/07 06:37:16;;;;;;;5.50;2.10;;;12.90;99.90;;;;;;4888934;29;20048;-96
2023/06/07 06:39:42;;;;;;;6.65;2.00;;;13.00;99.90;;;;;;4874099;29;20048;-96
2023/06/07 06:42:07;;;;;;;7.50;2.10;;;13.20;99.90;;;;;;4872039;29;20044;-96
2023/06/07 06:44:33;;;;;;;5.35;1.88;;;13.30;99.90;;;;;;4882695;29;20040;-96
2023/06/07 06:47:00;;;;;;;6.28;1.90;;;13.50;99.90;;;;;;4891095;29;20076;-96
2023/06/07 06:49:28;;;;;;;6.90;2.00;;;13.80;99.90;;;;;;4896459;29;20063;-96
2023/06/07 06:51:54;;;;;;;5.72;1.98;;;14.10;99.90;;;;;;4894391;29;20044;-96
2023/06/07 06:54:22;;;;;;;6.65;1.98;;;14.40;99.90;;;;;;4882435;29;20072;-96
2023/06/07 06:56:47;;;;;;;4.07;1.38;;;14.70;99.90;;;;;;4893470;29;20044;-96
2023/06/07 06:59:13;;;;;;;7.53;2.17;;;14.90;99.90;;;;;;4892636;29;20396;-96
2023/06/07 07:01:45;;;;;;;3.47;1.70;;;14.90;99.90;;;;;;4895649;29;20037;-96
2023/06/07 07:04:12;;;;;;;7.60;2.50;;;15.10;99.90;;;;;;4890257;29;20040;-96
2023/06/07 07:06:38;;;;;;;4.10;1.60;;;15.40;99.90;;;;;;4889839;29;20064;-96
2023/06/07 07:09:04;;;;;;;7.45;1.95;;;15.80;99.90;;;;;;4894879;29;20061;-96
2023/06/07 07:11:33;;;;;;;4.07;2.30;;;16.10;99.90;;;;;;4887518;29;20076;-96
2023/06/07 07:13:58;;;;;;;10.05;2.10;;;16.20;99.90;;;;;;4902902;29;20040;-96
2023/06/07 07:16:24;;;;;;;5.10;1.83;;;16.10;99.90;;;;;;4892727;29;20068;-96
2023/06/07 07:18:53;;;;;;;3.75;1.60;;;16.40;99.90;;;;;;4912019;29;20071;-96
2023/06/07 07:21:19;;;;;;;5.65;1.65;;;16.40;99.90;;;;;;4910426;29;20034;-96
2023/06/07 07:23:46;;;;;;;4.15;1.80;;;16.30;99.90;;;;;;4906469;29;20063;-96
2023/06/07 07:26:11;;;;;;;7.93;2.35;;;16.10;99.90;;;;;;4878299;29;20052;-96
2023/06/07 07:28:37;;;;;;;5.28;2.35;;;15.80;99.90;;;;;;4881128;29;20048;-96
2023/06/07 07:31:03;;;;;;;4.95;1.70;;;15.50;99.90;;;;;;4903274;29;20040;-96
2023/06/07 07:33:29;;;;;;;7.20;1.85;;;15.20;99.90;;;;;;4874321;29;20553;-96
2023/06/07 07:35:54;;;;;;;4.78;1.83;;;15.00;99.90;;;;;;4874643;29;20048;-96
2023/06/07 07:38:20;;;;;;;4.82;1.80;;;15.30;99.90;;;;;;4888087;29;20145;-96
2023/06/07 07:40:47;;;;;;;4.15;1.80;;;16.30;99.90;;;;;;4902326;29;20040;-96
2023/06/07 07:43:13;;;;;;;6.63;2.10;;;17.10;99.90;;;;;;4876307;29;20040;-96
2023/06/07 07:45:38;;;;;;;6.97;1.63;;;17.80;99.90;;;;;;4888444;29;20474;-96
2023/06/07 07:48:04;;;;;;;7.05;1.75;;;18.60;99.90;;;;;;4900652;29;20063;-96
2023/06/07 07:50:31;;;;;;;3.17;1.87;;;19.30;99.90;;;;;;4888959;29;20099;-96
2023/06/07 07:52:57;;;;;;;3.47;1.70;;;19.90;99.90;;;;;;4894823;29;20111;-96
2023/06/07 07:55:25;;;;;;;3.28;1.60;;;20.10;99.90;;;;;;4887384;29;20040;-96
2023/06/07 07:57:56;;;;;;;3.75;1.90;;;20.60;99.90;;;;;;4892904;29;20056;-96
2023/06/07 08:00:23;;;;;;;5.05;1.60;;;20.70;99.90;;;;;;4886176;29;20431;-96
2023/06/07 08:02:49;;;;;;;5.53;1.73;;;20.50;99.90;;;;;;4895767;29;20120;-96
2023/06/07 08:05:15;;;;;;;3.92;1.60;;;19.70;99.90;;;;;;4879189;29;20095;-96
2023/06/07 08:07:41;;;;;;;7.13;2.00;;;19.10;99.90;;;;;;4905064;29;20044;-96
2023/06/07 08:10:08;;;;;;;5.43;1.90;;;18.60;99.90;;;;;;4902195;29;20191;-96
2023/06/07 08:12:34;;;;;;;6.22;1.80;;;18.00;99.90;;;;;;4882583;29;20325;-96
2023/06/07 08:15:00;;;;;;;6.38;2.17;;;17.80;99.90;;;;;;4886697;29;20039;-96
2023/06/07 08:17:26;;;;;;;7.10;2.28;;;17.60;99.90;;;;;;4888372;29;20036;-96
2023/06/07 08:19:52;;;;;;;6.18;2.38;;;17.60;99.90;;;;;;4877415;29;20044;-96
2023/06/07 08:22:18;;;;;;;4.65;1.83;;;17.80;99.90;;;;;;4896589;29;20112;-96
2023/06/07 08:24:44;;;;;;;5.85;2.33;;;18.40;99.90;;;;;;4922963;29;20028;-96
2023/06/07 08:27:10;;;;;;;3.65;1.83;;;18.90;99.90;;;;;;4906427;29;20032;-96
2023/06/07 08:29:36;;;;;;;6.17;1.97;;;19.00;99.90;;;;;;4909891;29;20048;-96
2023/06/07 08:32:02;;;;;;;6.53;1.92;;;19.00;99.90;;;;;;4888262;29;20043;-96
2023/06/07 08:34:28;;;;;;;5.10;2.10;;;18.70;99.90;;;;;;4888616;29;20036;-96
2023/06/07 08:36:55;;;;;;;7.05;2.40;;;18.60;99.90;;;;;;4904339;29;20040;-96
2023/06/07 08:39:21;;;;;;;5.70;2.20;;;18.40;99.90;;;;;;4904180;29;20044;-96
2023/06/07 08:41:47;;;;;;;6.97;2.00;;;18.10;99.90;;;;;;4889346;29;20051;-96
2023/06/07 08:44:13;;;;;;;3.17;1.75;;;18.10;99.90;;;;;;4875376;29;20407;-93
2023/06/07 08:46:39;;;;;;;6.82;2.20;;;17.90;99.90;;;;;;4888857;29;20044;-92
2023/06/07 08:49:05;;;;;;;7.00;1.60;;;18.00;99.90;;;;;;4878444;29;20711;-93
2023/06/07 08:51:36;;;;;;;4.20;1.80;;;18.30;99.90;;;;;;4851983;29;20560;-94
2023/06/07 08:54:04;;;;;;;6.43;1.83;;;18.90;99.90;;;;;;4869491;29;20063;-93
2023/06/07 08:56:33;;;;;;;7.05;1.90;;;19.40;99.90;;;;;;4880503;29;20413;-92
2023/06/07 08:59:00;;;;;;;7.55;2.33;;;19.70;99.90;;;;;;4887684;29;20127;-94
2023/06/07 09:01:29;;;;;;;5.53;1.70;;;20.00;99.90;;;;;;4851444;29;20053;-92
2023/06/07 09:03:55;;;;;;;4.85;1.83;;;19.80;99.90;;;;;;4870329;29;20048;-92
2023/06/07 09:06:22;;;;;;;5.03;1.88;;;19.80;99.90;;;;;;4868506;29;20044;-92
2023/06/07 09:08:48;;;;;;;4.68;1.70;;;19.90;99.90;;;;;;4864257;29;20075;-93
2023/06/07 09:11:15;;;;;;;7.38;2.50;;;20.20;99.90;;;;;;4882011;29;20047;-92
2023/06/07 09:13:41;;;;;;;4.78;1.65;;;20.20;99.90;;;;;;4866995;29;20509;-91
2023/06/07 09:16:11;;;;;;;7.93;2.13;;;20.10;99.90;;;;;;4858704;29;20040;-93
2023/06/07 09:18:45;;;;;;;5.00;2.10;;;20.10;99.90;;;;;;4874513;29;20039;-92
2023/06/07 09:21:23;;;;;;;5.45;2.00;;;20.20;99.90;;;;;;4852262;29;20040;-93
2023/06/07 09:23:50;;;;;;;6.30;2.28;;;20.20;99.90;;;;;;4889131;29;20045;-93
2023/06/07 09:26:16;;;;;;;;;;;20.00;99.90;;;;;;4867943;29;20058;-94
2023/06/07 09:28:45;;;;;;;7.40;2.60;;;19.90;99.90;;;;;;4866192;29;19947;-93
2023/06/07 09:31:25;;;;;;;3.83;2.03;;;19.70;99.90;;;;;;4852234;29;20040;-94
2023/06/07 09:33:51;;;;;;;5.05;2.10;;;19.60;99.90;;;;;;4888811;29;20032;-92
2023/06/07 09:36:17;;;;;;;5.57;2.13;;;19.40;99.90;;;;;;4887542;29;20068;-92
2023/06/07 09:38:43;;;;;;;6.63;2.30;;;19.40;99.90;;;;;;4870772;29;20032;-92
2023/06/07 09:41:12;;;;;;;4.45;1.95;;;19.50;99.90;;;;;;4874354;29;20032;-92
2023/06/07 09:43:43;;;;;;;5.35;2.05;;;19.60;99.90;;;;;;4860447;29;20056;-92
2023/06/07 09:46:08;;;;;;;5.95;2.00;;;19.50;99.90;;;;;;4867934;29;20487;-92
2023/06/07 09:49:04;;;;;;;5.78;2.30;;;19.40;99.90;;;;;;4875601;29;20055;-92
2023/06/07 09:51:40;;;;;;;4.93;2.00;;;19.20;99.90;;;;;;4848972;29;20048;-94
2023/06/07 09:54:06;;;;;;;5.38;2.22;;;19.00;99.90;;;;;;4884756;29;20048;-93
2023/06/07 09:56:32;;;;;;;6.88;2.60;;;19.10;99.90;;;;;;4869243;29;20040;-91
2023/06/07 09:59:07;;;;;;;6.13;2.80;;;19.20;99.90;;;;;;4893645;29;20102;-93
2023/06/07 10:01:38;;;;;;;7.95;2.60;;;19.10;99.90;;;;;;4885006;29;20040;-92
2023/06/07 10:04:05;;;;;;;7.55;2.10;;;19.30;99.90;;;;;;4899960;29;20047;-92
2023/06/07 10:06:34;;;;;;;;;;;19.30;99.90;;;;;;4872670;29;20048;-93
2023/06/07 10:09:05;;;;;;;6.85;2.40;;;19.10;99.90;;;;;;4869974;29;19919;-92
2023/06/07 10:11:36;;;;;;;4.82;2.33;;;19.20;99.90;;;;;;4880425;29;20456;-93
2023/06/07 10:14:18;;;;;;;7.13;2.30;;;19.30;99.90;;;;;;4883958;29;20359;-93
2023/06/07 10:16:50;;;;;;;6.47;2.17;;;19.40;99.90;;;;;;4888122;29;20046;-93
2023/06/07 10:19:20;;;;;;;5.18;2.03;;;19.30;99.90;;;;;;4878224;29;20041;-92
2023/06/07 10:21:50;;;;;;;5.25;2.20;;;19.50;99.90;;;;;;4897490;29;20036;-93
2023/06/07 10:24:36;;;;;;;4.78;2.47;;;19.50;99.90;;;;;;4887847;29;20036;-92
2023/06/07 10:27:17;;;;;;;6.95;2.45;;;19.50;99.90;;;;;;4897814;29;20187;-93
2023/06/07 10:30:08;;;;;;;6.55;2.25;;;19.60;99.90;;;;;;4883704;29;20037;-93
2023/06/07 10:32:38;;;;;;;7.45;2.28;;;19.50;99.90;;;;;;4887486;29;20099;-93
2023/06/07 10:35:08;;;;;;;6.10;2.50;;;19.60;99.90;;;;;;4886683;29;20037;-93
2023/06/07 10:37:36;;;;;;;4.40;2.00;;;19.70;99.90;;;;;;4884204;29;20040;-93
2023/06/07 10:40:10;;;;;;;7.90;2.67;;;19.90;99.90;;;;;;4892760;29;20386;-93
2023/06/07 10:42:37;;;;;;;5.15;2.42;;;20.00;99.90;;;;;;4871024;29;20050;-93
2023/06/07 10:45:04;;;;;;;5.90;2.35;;;20.10;99.90;;;;;;4868367;29;20130;-93
2023/06/07 10:47:30;;;;;;;6.25;2.63;;;20.00;99.90;;;;;;4854887;29;20344;-92
2023/06/07 10:49:57;;;;;;;6.22;2.70;;;19.80;99.90;;;;;;4884689;29;20059;-92
2023/06/07 10:52:26;;;;;;;4.90;2.13;;;19.70;99.90;;;;;;4879441;29;20036;-91
2023/06/07 10:54:52;;;;;;;7.13;2.50;;;19.80;99.90;;;;;;4910542;29;20047;-92
2023/06/07 10:57:35;;;;;;;8.48;2.47;;;19.70;99.90;;;;;;4912141;29;20031;-92
2023/06/07 11:00:30;;;;;;;4.88;1.92;;;19.70;99.90;;;;;;4894375;29;20060;-92
2023/06/07 11:03:05;;;;;;;6.63;2.38;;;19.40;99.90;;;;;;4880721;29;20052;-92
2023/06/07 11:05:55;;;;;;;5.05;2.13;;;19.50;99.90;;;;;;4896545;29;20454;-91
2023/06/07 11:08:27;;;;;;;5.75;2.20;;;19.50;99.90;;;;;;4893224;29;20039;-93
2023/06/07 11:11:00;;;;;;;6.05;1.98;;;19.60;99.90;;;;;;4858946;29;20044;-93
2023/06/07 11:13:39;;;;;;;5.78;2.25;;;19.70;99.90;;;;;;4889245;29;20059;-96
2023/06/07 11:16:24;;;;;;;4.55;1.90;;;19.70;99.90;;;;;;4901542;29;20100;-96
2023/06/07 11:19:05;;;;;;;6.25;2.28;;;19.70;99.90;;;;;;4914027;29;20062;-96
2023/06/07 11:21:57;;;;;;;4.75;1.80;;;19.80;99.90;;;;;;4890878;29;20081;-96
2023/06/07 11:24:27;;;;;;;5.10;2.13;;;19.90;99.90;;;;;;4881478;29;20033;-96
2023/06/07 11:26:52;;;;;;;6.03;2.08;;;19.90;99.90;;;;;;4893693;29;20415;-96
2023/06/07 11:29:19;;;;;;;7.53;2.30;;;20.00;99.90;;;;;;4876745;29;20044;-96
2023/06/07 11:32:00;;;;;;;5.95;2.42;;;19.90;99.90;;;;;;4879509;29;20037;-96
2023/06/07 11:34:27;;;;;;;4.47;2.00;;;19.70;99.90;;;;;;4880956;29;20054;-96
2023/06/07 11:37:13;;;;;;;4.30;2.55;;;19.70;99.90;;;;;;4890196;29;20048;-96
2023/06/07 11:39:39;;;;;;;6.43;2.28;;;19.60;99.90;;;;;;4888588;29;20048;-96
2023/06/07 11:42:06;;;;;;;3.97;2.20;;;19.60;99.90;;;;;;4889346;29;20040;-96
2023/06/07 11:44:34;;;;;;;3.35;1.73;;;19.60;99.90;;;;;;4895035;29;20040;-96
2023/06/07 11:47:06;;;;;;;4.75;1.95;;;19.50;99.90;;;;;;4906942;29;20067;-96
2023/06/07 11:49:38;;;;;;;6.85;1.92;;;19.70;99.90;;;;;;4901503;29;20069;-96
2023/06/07 11:52:15;;;;;;;6.07;2.00;;;19.70;99.90;;;;;;4892200;29;20044;-96
2023/06/07 11:56:00;;;;;;;6.72;2.08;;;19.60;99.90;;;;;;4925875;29;20024;-96
2023/06/07 11:59:50;;;;;;;;;;;;;;;;;;;;;
2023/06/07 12:02:39;;;;;;;5.70;1.75;;;19.30;99.90;;;;;;4906181;24;20136;-41
2023/06/07 12:05:09;;;;;;;3.90;1.85;;;19.30;99.90;;;;;;4897618;29;20514;-41
2023/06/07 12:07:36;;;;;;;7.03;2.28;;;19.30;99.90;;;;;;4900478;29;20123;-41
2023/06/07 12:10:07;;;;;;;4.57;1.90;;;19.20;99.90;;;;;;4881727;29;20056;-41
2023/06/07 12:12:45;;;;;;;6.00;2.40;;;19.10;99.90;;;;;;4903237;29;20041;-41
2023/06/07 12:15:10;;;;;;;4.50;1.88;;;19.10;99.90;;;;;;4878972;29;20124;-40
2023/06/07 12:17:45;;;;;;;4.20;2.08;;;19.10;99.90;;;;;;4892555;29;20131;-40
2023/06/07 12:20:12;;;;;;;7.40;2.42;;;19.00;99.90;;;;;;4895051;29;20075;-40
2023/06/07 12:22:39;;;;;;;5.45;2.20;;;18.90;99.90;;;;;;4915696;29;20055;-40
2023/06/07 12:25:10;;;;;;;6.40;2.20;;;18.90;99.90;;;;;;4898352;29;20083;-40
2023/06/07 12:27:39;;;;;;;4.80;2.10;;;18.90;99.90;;;;;;4915633;29;20503;-41
2023/06/07 12:30:08;;;;;;;5.53;2.45;;;18.80;99.90;;;;;;4902164;29;20051;-41
2023/06/07 12:32:34;;;;;;;5.78;2.22;;;18.80;99.90;;;;;;4906483;29;20046;-41
2023/06/07 12:35:05;;;;;;;6.45;2.10;;;18.80;99.90;;;;;;4911705;29;20044;-41
2023/06/07 12:37:35;;;;;;;6.78;2.08;;;18.80;99.90;;;;;;4912277;29;20064;-41
2023/06/07 12:40:05;;;;;;;6.70;2.40;;;18.70;99.90;;;;;;4897089;29;20048;-41
2023/06/07 12:42:34;;;;;;;5.13;2.08;;;18.70;99.90;;;;;;4913161;29;20123;-41
2023/06/07 12:45:01;;;;;;;5.05;2.38;;;18.60;99.90;;;;;;4913936;29;20040;-41
2023/06/07 12:47:27;;;;;;;6.72;2.13;;;18.60;99.90;;;;;;4901225;29;20044;-41
2023/06/07 12:49:53;;;;;;;6.93;2.20;;;18.60;99.90;;;;;;4912050;29;20085;-41
2023/06/07 12:52:19;;;;;;;8.57;2.15;;;18.60;99.90;;;;;;4883193;29;20051;-41
2023/06/07 12:54:44;;;;;;;6.72;2.00;;;18.50;99.90;;;;;;4895517;29;20044;-41
2023/06/07 12:57:10;;;;;;;5.13;2.22;;;18.40;99.90;;;;;;4895099;29;20051;-41
2023/06/07 12:59:36;;;;;;;6.20;2.00;;;18.40;99.90;;;;;;4914315;29;20103;-41